sensor_id;sensor_type;location;lat;lon;timestamp;P1;durP1;ratioP1;P2;durP2;ratioP2
61356;SDS011;47227;46.752;23.576;2023-03-01T00:00:18;50.70;;;25.00;;
61356;SDS011;47227;46.752;23.576;2023-03-01T00:03:05;48.80;;;24.70;;
61356;SDS011;47227;46.752;23.576;2023-03-01T00:05:32;48.00;;;25.20;;
61356;SDS011;47227;46.752;23.576;2023-03-01T00:07:59;54.00;;;26.90;;
61356;SDS011;47227;46.752;23.576;2023-03-01T00:10:26;54.70;;;27.90;;
61356;SDS011;47227;46.752;23.576;2023-03-01T00:12:53;54.70;;;27.70;;
61356;SDS011;47227;46.752;23.576;2023-03-01T00:15:19;56.90;;;30.00;;
61356;SDS011;47227;46.752;23.576;2023-03-01T00:17:46;53.90;;;27.10;;
61356;SDS011;47227;46.752;23.576;2023-03-01T00:20:13;67.20;;;33.60;;
61356;SDS011;47227;46.752;23.576;2023-03-01T00:22:40;57.80;;;28.80;;
61356;SDS011;47227;46.752;23.576;2023-03-01T00:25:07;43.40;;;22.30;;
61356;SDS011;47227;46.752;23.576;2023-03-01T00:27:35;41.70;;;21.60;;
61356;SDS011;47227;46.752;23.576;2023-03-01T00:30:05;38.90;;;19.90;;
61356;SDS011;47227;46.752;23.576;2023-03-01T00:32:32;44.30;;;21.80;;
61356;SDS011;47227;46.752;23.576;2023-03-01T00:34:59;42.00;;;20.90;;
61356;SDS011;47227;46.752;23.576;2023-03-01T00:37:26;50.00;;;24.30;;
61356;SDS011;47227;46.752;23.576;2023-03-01T00:39:52;36.30;;;19.00;;
61356;SDS011;47227;46.752;23.576;2023-03-01T00:42:19;35.90;;;19.50;;
61356;SDS011;47227;46.752;23.576;2023-03-01T00:44:46;32.00;;;18.40;;
61356;SDS011;47227;46.752;23.576;2023-03-01T00:47:12;39.00;;;19.70;;
61356;SDS011;47227;46.752;23.576;2023-03-01T00:49:40;38.70;;;21.70;;
61356;SDS011;47227;46.752;23.576;2023-03-01T00:52:07;38.10;;;20.50;;
61356;SDS011;47227;46.752;23.576;2023-03-01T00:54:34;37.10;;;21.10;;
61356;SDS011;47227;46.752;23.576;2023-03-01T00:57:01;47.40;;;25.10;;
61356;SDS011;47227;46.752;23.576;2023-03-01T00:59:29;38.00;;;20.40;;
61356;SDS011;47227;46.752;23.576;2023-03-01T01:01:56;33.30;;;18.50;;
61356;SDS011;47227;46.752;23.576;2023-03-01T01:04:26;30.40;;;16.90;;
61356;SDS011;47227;46.752;23.576;2023-03-01T01:06:53;28.20;;;15.40;;
61356;SDS011;47227;46.752;23.576;2023-03-01T01:09:20;25.30;;;14.10;;
61356;SDS011;47227;46.752;23.576;2023-03-01T01:11:48;16.60;;;10.70;;
61356;SDS011;47227;46.752;23.576;2023-03-01T01:14:18;17.10;;;11.00;;
61356;SDS011;47227;46.752;23.576;2023-03-01T01:16:45;19.60;;;11.10;;
61356;SDS011;47227;46.752;23.576;2023-03-01T01:19:14;21.10;;;12.50;;
61356;SDS011;47227;46.752;23.576;2023-03-01T01:21:41;29.30;;;16.60;;
61356;SDS011;47227;46.752;23.576;2023-03-01T01:24:09;27.80;;;17.20;;
61356;SDS011;47227;46.752;23.576;2023-03-01T01:26:36;23.40;;;13.80;;
61356;SDS011;47227;46.752;23.576;2023-03-01T01:29:05;28.90;;;17.50;;
61356;SDS011;47227;46.752;23.576;2023-03-01T01:31:36;29.80;;;17.60;;
61356;SDS011;47227;46.752;23.576;2023-03-01T01:34:05;33.50;;;19.20;;
61356;SDS011;47227;46.752;23.576;2023-03-01T01:36:33;38.90;;;22.30;;
61356;SDS011;47227;46.752;23.576;2023-03-01T01:39:00;39.70;;;22.70;;
61356;SDS011;47227;46.752;23.576;2023-03-01T01:41:28;44.80;;;23.20;;
61356;SDS011;47227;46.752;23.576;2023-03-01T01:46:55;41.00;;;22.60;;
61356;SDS011;47227;46.752;23.576;2023-03-01T01:49:39;39.90;;;22.00;;
61356;SDS011;47227;46.752;23.576;2023-03-01T01:52:14;44.60;;;23.80;;
61356;SDS011;47227;46.752;23.576;2023-03-01T01:54:50;45.70;;;24.60;;
61356;SDS011;47227;46.752;23.576;2023-03-01T01:57:32;44.20;;;24.20;;
61356;SDS011;47227;46.752;23.576;2023-03-01T02:00:04;40.10;;;23.00;;
61356;SDS011;47227;46.752;23.576;2023-03-01T02:02:39;41.60;;;23.20;;
61356;SDS011;47227;46.752;23.576;2023-03-01T02:05:10;38.10;;;23.40;;
61356;SDS011;47227;46.752;23.576;2023-03-01T02:07:47;43.10;;;24.00;;
61356;SDS011;47227;46.752;23.576;2023-03-01T02:10:19;42.80;;;24.30;;
61356;SDS011;47227;46.752;23.576;2023-03-01T02:12:47;35.00;;;18.90;;
61356;SDS011;47227;46.752;23.576;2023-03-01T02:15:14;30.50;;;16.20;;
61356;SDS011;47227;46.752;23.576;2023-03-01T02:17:40;26.30;;;15.60;;
61356;SDS011;47227;46.752;23.576;2023-03-01T02:23:01;26.00;;;15.00;;
61356;SDS011;47227;46.752;23.576;2023-03-01T02:28:23;20.70;;;13.50;;
61356;SDS011;47227;46.752;23.576;2023-03-01T02:30:59;15.30;;;9.50;;
61356;SDS011;47227;46.752;23.576;2023-03-01T02:33:39;16.60;;;9.50;;
61356;SDS011;47227;46.752;23.576;2023-03-01T02:36:08;19.70;;;12.30;;
61356;SDS011;47227;46.752;23.576;2023-03-01T02:38:41;25.60;;;14.60;;
61356;SDS011;47227;46.752;23.576;2023-03-01T02:41:08;24.10;;;15.10;;
61356;SDS011;47227;46.752;23.576;2023-03-01T02:43:39;27.00;;;15.90;;
61356;SDS011;47227;46.752;23.576;2023-03-01T02:46:07;30.20;;;17.30;;
61356;SDS011;47227;46.752;23.576;2023-03-01T02:48:44;27.70;;;17.60;;
61356;SDS011;47227;46.752;23.576;2023-03-01T02:51:28;34.10;;;19.10;;
61356;SDS011;47227;46.752;23.576;2023-03-01T02:54:12;34.70;;;19.80;;
61356;SDS011;47227;46.752;23.576;2023-03-01T02:56:46;29.90;;;16.00;;
61356;SDS011;47227;46.752;23.576;2023-03-01T02:59:18;33.70;;;18.40;;
61356;SDS011;47227;46.752;23.576;2023-03-01T03:01:47;31.20;;;17.00;;
61356;SDS011;47227;46.752;23.576;2023-03-01T03:04:16;29.00;;;17.10;;
61356;SDS011;47227;46.752;23.576;2023-03-01T03:06:47;23.30;;;14.10;;
61356;SDS011;47227;46.752;23.576;2023-03-01T03:09:15;29.80;;;16.20;;
61356;SDS011;47227;46.752;23.576;2023-03-01T03:11:44;29.50;;;17.70;;
61356;SDS011;47227;46.752;23.576;2023-03-01T03:14:12;30.40;;;17.70;;
61356;SDS011;47227;46.752;23.576;2023-03-01T03:16:44;31.20;;;17.60;;
61356;SDS011;47227;46.752;23.576;2023-03-01T03:19:14;32.90;;;18.70;;
61356;SDS011;47227;46.752;23.576;2023-03-01T03:21:45;29.20;;;17.30;;
61356;SDS011;47227;46.752;23.576;2023-03-01T03:24:12;27.40;;;16.80;;
61356;SDS011;47227;46.752;23.576;2023-03-01T03:26:39;29.30;;;16.90;;
61356;SDS011;47227;46.752;23.576;2023-03-01T03:29:06;30.50;;;17.50;;
61356;SDS011;47227;46.752;23.576;2023-03-01T03:31:33;31.70;;;17.70;;
61356;SDS011;47227;46.752;23.576;2023-03-01T03:34:00;29.70;;;17.20;;
61356;SDS011;47227;46.752;23.576;2023-03-01T03:36:27;32.50;;;18.10;;
61356;SDS011;47227;46.752;23.576;2023-03-01T03:38:54;31.80;;;17.50;;
61356;SDS011;47227;46.752;23.576;2023-03-01T03:41:21;28.60;;;16.50;;
61356;SDS011;47227;46.752;23.576;2023-03-01T03:43:49;29.10;;;16.30;;
61356;SDS011;47227;46.752;23.576;2023-03-01T03:46:15;30.30;;;17.30;;
61356;SDS011;47227;46.752;23.576;2023-03-01T03:48:43;25.90;;;15.40;;
61356;SDS011;47227;46.752;23.576;2023-03-01T03:51:12;27.50;;;15.60;;
61356;SDS011;47227;46.752;23.576;2023-03-01T03:53:41;24.30;;;14.50;;
61356;SDS011;47227;46.752;23.576;2023-03-01T03:56:08;36.60;;;20.20;;
61356;SDS011;47227;46.752;23.576;2023-03-01T03:58:36;34.40;;;19.50;;
61356;SDS011;47227;46.752;23.576;2023-03-01T04:01:03;19.40;;;12.10;;
61356;SDS011;47227;46.752;23.576;2023-03-01T04:03:30;12.60;;;8.20;;
61356;SDS011;47227;46.752;23.576;2023-03-01T04:05:59;22.10;;;14.70;;
61356;SDS011;47227;46.752;23.576;2023-03-01T04:08:27;28.00;;;16.40;;
61356;SDS011;47227;46.752;23.576;2023-03-01T04:10:59;26.00;;;16.20;;
61356;SDS011;47227;46.752;23.576;2023-03-01T04:13:49;27.60;;;17.10;;
61356;SDS011;47227;46.752;23.576;2023-03-01T04:16:18;27.90;;;16.90;;
61356;SDS011;47227;46.752;23.576;2023-03-01T04:18:46;30.00;;;17.60;;
61356;SDS011;47227;46.752;23.576;2023-03-01T04:21:58;30.00;;;18.20;;
61356;SDS011;47227;46.752;23.576;2023-03-01T04:25:10;25.20;;;16.10;;
61356;SDS011;47227;46.752;23.576;2023-03-01T04:28:51;26.00;;;15.70;;
61356;SDS011;47227;46.752;23.576;2023-03-01T04:32:26;30.20;;;16.00;;
61356;SDS011;47227;46.752;23.576;2023-03-01T04:35:40;29.40;;;17.70;;
61356;SDS011;47227;46.752;23.576;2023-03-01T04:39:26;27.40;;;15.80;;
61356;SDS011;47227;46.752;23.576;2023-03-01T04:43:03;27.20;;;16.10;;
61356;SDS011;47227;46.752;23.576;2023-03-01T04:45:45;25.10;;;15.20;;
61356;SDS011;47227;46.752;23.576;2023-03-01T04:48:11;24.80;;;16.10;;
61356;SDS011;47227;46.752;23.576;2023-03-01T04:50:38;22.00;;;14.90;;
61356;SDS011;47227;46.752;23.576;2023-03-01T04:53:04;23.10;;;14.30;;
61356;SDS011;47227;46.752;23.576;2023-03-01T04:55:31;23.90;;;14.30;;
61356;SDS011;47227;46.752;23.576;2023-03-01T04:57:57;24.00;;;14.40;;
61356;SDS011;47227;46.752;23.576;2023-03-01T05:00:24;23.40;;;14.10;;
61356;SDS011;47227;46.752;23.576;2023-03-01T05:02:53;22.20;;;13.50;;
61356;SDS011;47227;46.752;23.576;2023-03-01T05:05:25;23.50;;;14.00;;
61356;SDS011;47227;46.752;23.576;2023-03-01T05:07:56;29.90;;;17.30;;
61356;SDS011;47227;46.752;23.576;2023-03-01T05:10:24;25.20;;;14.70;;
61356;SDS011;47227;46.752;23.576;2023-03-01T05:12:52;24.90;;;15.50;;
61356;SDS011;47227;46.752;23.576;2023-03-01T05:15:19;25.80;;;14.80;;
61356;SDS011;47227;46.752;23.576;2023-03-01T05:17:48;21.70;;;14.00;;
61356;SDS011;47227;46.752;23.576;2023-03-01T05:20:15;29.60;;;16.50;;
61356;SDS011;47227;46.752;23.576;2023-03-01T05:22:42;24.20;;;14.60;;
61356;SDS011;47227;46.752;23.576;2023-03-01T05:25:09;26.00;;;15.20;;
61356;SDS011;47227;46.752;23.576;2023-03-01T05:27:36;23.90;;;14.80;;
61356;SDS011;47227;46.752;23.576;2023-03-01T05:30:02;22.30;;;14.20;;
61356;SDS011;47227;46.752;23.576;2023-03-01T05:32:40;25.20;;;14.30;;
61356;SDS011;47227;46.752;23.576;2023-03-01T05:35:10;21.50;;;14.20;;
61356;SDS011;47227;46.752;23.576;2023-03-01T05:37:40;23.70;;;15.00;;
61356;SDS011;47227;46.752;23.576;2023-03-01T05:40:08;21.90;;;15.10;;
61356;SDS011;47227;46.752;23.576;2023-03-01T05:42:43;23.30;;;15.10;;
61356;SDS011;47227;46.752;23.576;2023-03-01T05:45:14;26.30;;;16.00;;
61356;SDS011;47227;46.752;23.576;2023-03-01T05:47:43;25.80;;;16.00;;
61356;SDS011;47227;46.752;23.576;2023-03-01T05:50:12;24.50;;;15.30;;
61356;SDS011;47227;46.752;23.576;2023-03-01T05:52:47;30.10;;;18.10;;
61356;SDS011;47227;46.752;23.576;2023-03-01T05:55:15;33.30;;;20.00;;
61356;SDS011;47227;46.752;23.576;2023-03-01T05:57:43;35.10;;;21.30;;
61356;SDS011;47227;46.752;23.576;2023-03-01T06:00:11;40.10;;;23.80;;
61356;SDS011;47227;46.752;23.576;2023-03-01T06:02:40;37.20;;;22.90;;
61356;SDS011;47227;46.752;23.576;2023-03-01T06:05:08;42.10;;;24.50;;
61356;SDS011;47227;46.752;23.576;2023-03-01T06:07:37;37.20;;;23.40;;
61356;SDS011;47227;46.752;23.576;2023-03-01T06:10:05;36.60;;;23.00;;
61356;SDS011;47227;46.752;23.576;2023-03-01T06:12:33;42.20;;;24.90;;
61356;SDS011;47227;46.752;23.576;2023-03-01T06:15:02;42.30;;;24.90;;
61356;SDS011;47227;46.752;23.576;2023-03-01T06:17:30;44.30;;;25.90;;
61356;SDS011;47227;46.752;23.576;2023-03-01T06:20:04;56.70;;;29.10;;
61356;SDS011;47227;46.752;23.576;2023-03-01T06:22:32;56.20;;;29.90;;
61356;SDS011;47227;46.752;23.576;2023-03-01T06:24:59;36.30;;;21.70;;
61356;SDS011;47227;46.752;23.576;2023-03-01T06:27:25;48.70;;;25.50;;
61356;SDS011;47227;46.752;23.576;2023-03-01T06:29:52;38.20;;;22.30;;
61356;SDS011;47227;46.752;23.576;2023-03-01T06:32:19;46.20;;;25.50;;
61356;SDS011;47227;46.752;23.576;2023-03-01T06:34:45;39.20;;;24.60;;
61356;SDS011;47227;46.752;23.576;2023-03-01T06:37:12;41.10;;;24.70;;
61356;SDS011;47227;46.752;23.576;2023-03-01T06:39:41;42.90;;;24.70;;
61356;SDS011;47227;46.752;23.576;2023-03-01T06:42:08;37.40;;;23.40;;
61356;SDS011;47227;46.752;23.576;2023-03-01T06:44:36;47.50;;;26.10;;
61356;SDS011;47227;46.752;23.576;2023-03-01T06:47:03;91.20;;;40.70;;
61356;SDS011;47227;46.752;23.576;2023-03-01T06:49:30;75.20;;;35.40;;
61356;SDS011;47227;46.752;23.576;2023-03-01T06:51:57;63.00;;;36.30;;
61356;SDS011;47227;46.752;23.576;2023-03-01T06:54:24;52.00;;;29.20;;
61356;SDS011;47227;46.752;23.576;2023-03-01T06:56:50;47.40;;;28.00;;
61356;SDS011;47227;46.752;23.576;2023-03-01T06:59:17;49.00;;;27.90;;
61356;SDS011;47227;46.752;23.576;2023-03-01T07:01:44;48.90;;;27.90;;
61356;SDS011;47227;46.752;23.576;2023-03-01T07:04:11;44.70;;;26.30;;
61356;SDS011;47227;46.752;23.576;2023-03-01T07:06:38;47.50;;;26.50;;
61356;SDS011;47227;46.752;23.576;2023-03-01T07:09:05;48.60;;;29.00;;
61356;SDS011;47227;46.752;23.576;2023-03-01T07:11:32;42.70;;;26.40;;
61356;SDS011;47227;46.752;23.576;2023-03-01T07:13:59;45.40;;;27.30;;
61356;SDS011;47227;46.752;23.576;2023-03-01T07:16:29;54.50;;;31.20;;
61356;SDS011;47227;46.752;23.576;2023-03-01T07:18:58;43.00;;;24.30;;
61356;SDS011;47227;46.752;23.576;2023-03-01T07:21:43;43.70;;;25.90;;
61356;SDS011;47227;46.752;23.576;2023-03-01T07:24:31;45.60;;;29.00;;
61356;SDS011;47227;46.752;23.576;2023-03-01T07:27:06;48.10;;;29.50;;
61356;SDS011;47227;46.752;23.576;2023-03-01T07:29:35;43.90;;;26.00;;
61356;SDS011;47227;46.752;23.576;2023-03-01T07:32:05;45.20;;;25.60;;
61356;SDS011;47227;46.752;23.576;2023-03-01T07:36:09;37.00;;;22.20;;
61356;SDS011;47227;46.752;23.576;2023-03-01T07:38:50;36.70;;;22.50;;
61356;SDS011;47227;46.752;23.576;2023-03-01T07:42:04;37.40;;;23.50;;
61356;SDS011;47227;46.752;23.576;2023-03-01T07:44:42;36.10;;;23.60;;
61356;SDS011;47227;46.752;23.576;2023-03-01T07:47:44;30.30;;;19.80;;
61356;SDS011;47227;46.752;23.576;2023-03-01T07:55:26;26.40;;;17.90;;
61356;SDS011;47227;46.752;23.576;2023-03-01T07:58:09;31.70;;;19.90;;
61356;SDS011;47227;46.752;23.576;2023-03-01T08:09:28;28.30;;;17.80;;
61356;SDS011;47227;46.752;23.576;2023-03-01T08:11:56;24.50;;;15.10;;
61356;SDS011;47227;46.752;23.576;2023-03-01T08:15:08;26.40;;;16.20;;
61356;SDS011;47227;46.752;23.576;2023-03-01T08:17:39;24.40;;;14.50;;
61356;SDS011;47227;46.752;23.576;2023-03-01T08:20:15;26.40;;;15.70;;
61356;SDS011;47227;46.752;23.576;2023-03-01T08:22:48;23.70;;;15.70;;
61356;SDS011;47227;46.752;23.576;2023-03-01T08:25:17;26.90;;;15.60;;
61356;SDS011;47227;46.752;23.576;2023-03-01T08:27:44;23.50;;;14.50;;
61356;SDS011;47227;46.752;23.576;2023-03-01T08:30:18;28.20;;;15.80;;
61356;SDS011;47227;46.752;23.576;2023-03-01T08:33:43;29.80;;;18.20;;
61356;SDS011;47227;46.752;23.576;2023-03-01T08:37:13;31.40;;;17.50;;
61356;SDS011;47227;46.752;23.576;2023-03-01T08:39:46;37.20;;;20.00;;
61356;SDS011;47227;46.752;23.576;2023-03-01T08:42:24;33.40;;;18.10;;
61356;SDS011;47227;46.752;23.576;2023-03-01T08:44:52;33.30;;;19.50;;
61356;SDS011;47227;46.752;23.576;2023-03-01T08:47:22;31.50;;;19.00;;
61356;SDS011;47227;46.752;23.576;2023-03-01T08:50:09;31.90;;;18.00;;
61356;SDS011;47227;46.752;23.576;2023-03-01T08:52:50;30.20;;;19.30;;
61356;SDS011;47227;46.752;23.576;2023-03-01T08:55:20;33.70;;;19.70;;
61356;SDS011;47227;46.752;23.576;2023-03-01T08:57:48;41.90;;;20.70;;
61356;SDS011;47227;46.752;23.576;2023-03-01T09:00:30;35.80;;;21.30;;
61356;SDS011;47227;46.752;23.576;2023-03-01T09:03:24;36.90;;;20.30;;
61356;SDS011;47227;46.752;23.576;2023-03-01T09:06:18;37.50;;;20.80;;
61356;SDS011;47227;46.752;23.576;2023-03-01T09:08:46;42.40;;;22.50;;
61356;SDS011;47227;46.752;23.576;2023-03-01T09:11:20;43.00;;;22.50;;
61356;SDS011;47227;46.752;23.576;2023-03-01T09:14:20;35.10;;;18.50;;
61356;SDS011;47227;46.752;23.576;2023-03-01T09:16:47;32.60;;;18.20;;
61356;SDS011;47227;46.752;23.576;2023-03-01T09:19:17;32.90;;;19.00;;
61356;SDS011;47227;46.752;23.576;2023-03-01T09:21:49;30.10;;;17.80;;
61356;SDS011;47227;46.752;23.576;2023-03-01T09:24:20;32.80;;;18.60;;
61356;SDS011;47227;46.752;23.576;2023-03-01T09:26:52;33.30;;;17.50;;
61356;SDS011;47227;46.752;23.576;2023-03-01T09:29:20;30.50;;;18.00;;
61356;SDS011;47227;46.752;23.576;2023-03-01T09:31:47;27.70;;;17.60;;
61356;SDS011;47227;46.752;23.576;2023-03-01T09:34:18;31.10;;;17.50;;
61356;SDS011;47227;46.752;23.576;2023-03-01T09:36:51;28.80;;;16.00;;
61356;SDS011;47227;46.752;23.576;2023-03-01T09:39:21;23.20;;;13.90;;
61356;SDS011;47227;46.752;23.576;2023-03-01T09:42:00;26.30;;;14.80;;
61356;SDS011;47227;46.752;23.576;2023-03-01T09:44:56;24.20;;;13.90;;
61356;SDS011;47227;46.752;23.576;2023-03-01T10:00:27;21.30;;;12.00;;
61356;SDS011;47227;46.752;23.576;2023-03-01T10:03:32;17.40;;;8.50;;
61356;SDS011;47227;46.752;23.576;2023-03-01T10:18:26;15.50;;;6.00;;
61356;SDS011;47227;46.752;23.576;2023-03-01T10:24:53;11.10;;;7.80;;
61356;SDS011;47227;46.752;23.576;2023-03-01T10:38:24;14.20;;;7.90;;
61356;SDS011;47227;46.752;23.576;2023-03-01T10:41:52;10.40;;;6.80;;
61356;SDS011;47227;46.752;23.576;2023-03-01T10:44:51;12.40;;;8.10;;
61356;SDS011;47227;46.752;23.576;2023-03-01T10:47:57;10.20;;;6.90;;
61356;SDS011;47227;46.752;23.576;2023-03-01T10:51:15;9.90;;;7.00;;
61356;SDS011;47227;46.752;23.576;2023-03-01T10:54:43;11.20;;;7.20;;
61356;SDS011;47227;46.752;23.576;2023-03-01T11:00:50;16.00;;;10.90;;
61356;SDS011;47227;46.752;23.576;2023-03-01T11:03:55;17.70;;;10.80;;
61356;SDS011;47227;46.752;23.576;2023-03-01T11:06:57;15.30;;;10.50;;
61356;SDS011;47227;46.752;23.576;2023-03-01T11:09:32;17.20;;;10.30;;
61356;SDS011;47227;46.752;23.576;2023-03-01T11:12:32;16.10;;;10.40;;
61356;SDS011;47227;46.752;23.576;2023-03-01T11:19:14;14.80;;;10.40;;
61356;SDS011;47227;46.752;23.576;2023-03-01T11:24:34;11.80;;;7.70;;
61356;SDS011;47227;46.752;23.576;2023-03-01T11:29:58;14.00;;;8.00;;
61356;SDS011;47227;46.752;23.576;2023-03-01T11:32:55;14.00;;;7.80;;
61356;SDS011;47227;46.752;23.576;2023-03-01T11:36:19;11.20;;;7.80;;
61356;SDS011;47227;46.752;23.576;2023-03-01T11:39:27;18.10;;;8.20;;
61356;SDS011;47227;46.752;23.576;2023-03-01T11:47:21;12.50;;;6.60;;
61356;SDS011;47227;46.752;23.576;2023-03-01T11:51:03;11.30;;;8.00;;
61356;SDS011;47227;46.752;23.576;2023-03-01T11:54:46;11.60;;;7.80;;
61356;SDS011;47227;46.752;23.576;2023-03-01T11:58:49;13.70;;;8.30;;
61356;SDS011;47227;46.752;23.576;2023-03-01T12:06:19;6.60;;;4.80;;
61356;SDS011;47227;46.752;23.576;2023-03-01T12:09:13;5.70;;;4.90;;
61356;SDS011;47227;46.752;23.576;2023-03-01T12:12:29;6.30;;;5.00;;
61356;SDS011;47227;46.752;23.576;2023-03-01T12:18:41;9.10;;;3.80;;
61356;SDS011;47227;46.752;23.576;2023-03-01T12:21:57;6.30;;;4.30;;
61356;SDS011;47227;46.752;23.576;2023-03-01T12:25:10;10.00;;;4.30;;
61356;SDS011;47227;46.752;23.576;2023-03-01T12:34:59;12.70;;;5.20;;
61356;SDS011;47227;46.752;23.576;2023-03-01T12:38:21;8.00;;;5.10;;
61356;SDS011;47227;46.752;23.576;2023-03-01T12:41:15;7.00;;;4.80;;
61356;SDS011;47227;46.752;23.576;2023-03-01T12:48:53;7.10;;;5.10;;
61356;SDS011;47227;46.752;23.576;2023-03-01T12:52:49;12.60;;;6.10;;
61356;SDS011;47227;46.752;23.576;2023-03-01T12:55:59;8.00;;;5.80;;
61356;SDS011;47227;46.752;23.576;2023-03-01T12:58:37;5.30;;;4.80;;
61356;SDS011;47227;46.752;23.576;2023-03-01T13:01:54;7.70;;;6.40;;
61356;SDS011;47227;46.752;23.576;2023-03-01T13:05:35;12.20;;;6.60;;
61356;SDS011;47227;46.752;23.576;2023-03-01T13:09:01;10.00;;;6.20;;
61356;SDS011;47227;46.752;23.576;2023-03-01T13:15:51;12.50;;;5.70;;
61356;SDS011;47227;46.752;23.576;2023-03-01T13:19:15;8.00;;;4.50;;
61356;SDS011;47227;46.752;23.576;2023-03-01T13:22:59;6.00;;;4.50;;
61356;SDS011;47227;46.752;23.576;2023-03-01T13:26:14;6.70;;;5.10;;
61356;SDS011;47227;46.752;23.576;2023-03-01T13:29:55;10.60;;;5.70;;
61356;SDS011;47227;46.752;23.576;2023-03-01T13:33:33;9.30;;;5.70;;
61356;SDS011;47227;46.752;23.576;2023-03-01T13:46:07;6.40;;;5.30;;
61356;SDS011;47227;46.752;23.576;2023-03-01T13:50:04;9.20;;;4.60;;
61356;SDS011;47227;46.752;23.576;2023-03-01T13:54:09;10.80;;;5.90;;
61356;SDS011;47227;46.752;23.576;2023-03-01T13:58:44;13.80;;;6.00;;
61356;SDS011;47227;46.752;23.576;2023-03-01T14:02:18;9.90;;;6.20;;
61356;SDS011;47227;46.752;23.576;2023-03-01T14:09:35;9.10;;;5.40;;
61356;SDS011;47227;46.752;23.576;2023-03-01T14:18:08;10.30;;;5.50;;
61356;SDS011;47227;46.752;23.576;2023-03-01T14:21:15;9.00;;;6.00;;
61356;SDS011;47227;46.752;23.576;2023-03-01T14:32:53;7.70;;;5.50;;
61356;SDS011;47227;46.752;23.576;2023-03-01T14:35:34;8.00;;;5.70;;
61356;SDS011;47227;46.752;23.576;2023-03-01T14:38:57;9.30;;;6.20;;
61356;SDS011;47227;46.752;23.576;2023-03-01T14:41:34;13.90;;;5.70;;
61356;SDS011;47227;46.752;23.576;2023-03-01T14:44:07;10.60;;;6.50;;
61356;SDS011;47227;46.752;23.576;2023-03-01T14:46:52;10.40;;;6.00;;
61356;SDS011;47227;46.752;23.576;2023-03-01T14:49:24;11.30;;;7.70;;
61356;SDS011;47227;46.752;23.576;2023-03-01T14:52:00;14.40;;;10.80;;
61356;SDS011;47227;46.752;23.576;2023-03-01T14:54:40;14.00;;;11.10;;
61356;SDS011;47227;46.752;23.576;2023-03-01T14:57:18;13.90;;;10.30;;
61356;SDS011;47227;46.752;23.576;2023-03-01T15:00:37;9.90;;;7.20;;
61356;SDS011;47227;46.752;23.576;2023-03-01T15:03:17;12.70;;;7.40;;
61356;SDS011;47227;46.752;23.576;2023-03-01T15:05:54;10.60;;;7.10;;
61356;SDS011;47227;46.752;23.576;2023-03-01T15:08:24;10.90;;;7.80;;
61356;SDS011;47227;46.752;23.576;2023-03-01T15:11:15;11.30;;;6.20;;
61356;SDS011;47227;46.752;23.576;2023-03-01T15:13:56;12.00;;;6.50;;
61356;SDS011;47227;46.752;23.576;2023-03-01T15:16:30;11.70;;;6.60;;
61356;SDS011;47227;46.752;23.576;2023-03-01T15:19:02;10.00;;;6.90;;
61356;SDS011;47227;46.752;23.576;2023-03-01T15:21:34;11.20;;;7.50;;
61356;SDS011;47227;46.752;23.576;2023-03-01T15:26:53;10.40;;;8.40;;
61356;SDS011;47227;46.752;23.576;2023-03-01T15:29:26;18.40;;;8.20;;
61356;SDS011;47227;46.752;23.576;2023-03-01T15:32:03;12.60;;;7.50;;
61356;SDS011;47227;46.752;23.576;2023-03-01T15:34:54;10.40;;;6.60;;
61356;SDS011;47227;46.752;23.576;2023-03-01T15:40:18;15.50;;;7.80;;
61356;SDS011;47227;46.752;23.576;2023-03-01T15:42:52;10.60;;;7.60;;
61356;SDS011;47227;46.752;23.576;2023-03-01T15:45:23;9.90;;;8.30;;
61356;SDS011;47227;46.752;23.576;2023-03-01T15:47:56;10.90;;;7.20;;
61356;SDS011;47227;46.752;23.576;2023-03-01T15:50:39;16.90;;;8.10;;
61356;SDS011;47227;46.752;23.576;2023-03-01T15:53:14;9.40;;;7.70;;
61356;SDS011;47227;46.752;23.576;2023-03-01T15:55:44;12.50;;;7.40;;
61356;SDS011;47227;46.752;23.576;2023-03-01T15:58:18;9.80;;;7.70;;
61356;SDS011;47227;46.752;23.576;2023-03-01T16:01:14;14.00;;;8.00;;
61356;SDS011;47227;46.752;23.576;2023-03-01T16:04:04;12.50;;;9.10;;
61356;SDS011;47227;46.752;23.576;2023-03-01T16:06:34;13.80;;;10.10;;
61356;SDS011;47227;46.752;23.576;2023-03-01T16:09:05;16.70;;;9.70;;
61356;SDS011;47227;46.752;23.576;2023-03-01T16:11:44;18.20;;;11.60;;
61356;SDS011;47227;46.752;23.576;2023-03-01T16:14:17;19.20;;;10.50;;
61356;SDS011;47227;46.752;23.576;2023-03-01T16:17:21;44.20;;;22.30;;
61356;SDS011;47227;46.752;23.576;2023-03-01T16:19:56;42.60;;;21.20;;
61356;SDS011;47227;46.752;23.576;2023-03-01T16:22:59;47.10;;;25.40;;
61356;SDS011;47227;46.752;23.576;2023-03-01T16:25:30;53.70;;;29.10;;
61356;SDS011;47227;46.752;23.576;2023-03-01T16:28:03;25.60;;;16.00;;
61356;SDS011;47227;46.752;23.576;2023-03-01T16:30:57;22.40;;;13.30;;
61356;SDS011;47227;46.752;23.576;2023-03-01T16:33:27;17.90;;;12.00;;
61356;SDS011;47227;46.752;23.576;2023-03-01T16:36:06;21.50;;;12.90;;
61356;SDS011;47227;46.752;23.576;2023-03-01T16:38:40;19.90;;;11.90;;
61356;SDS011;47227;46.752;23.576;2023-03-01T16:41:11;28.60;;;12.10;;
61356;SDS011;47227;46.752;23.576;2023-03-01T16:43:46;22.30;;;13.00;;
61356;SDS011;47227;46.752;23.576;2023-03-01T16:46:17;19.20;;;12.80;;
61356;SDS011;47227;46.752;23.576;2023-03-01T16:48:49;23.10;;;14.10;;
61356;SDS011;47227;46.752;23.576;2023-03-01T16:51:17;25.00;;;14.10;;
61356;SDS011;47227;46.752;23.576;2023-03-01T16:53:48;20.60;;;13.70;;
61356;SDS011;47227;46.752;23.576;2023-03-01T16:56:16;26.20;;;13.70;;
61356;SDS011;47227;46.752;23.576;2023-03-01T16:58:46;20.50;;;13.50;;
61356;SDS011;47227;46.752;23.576;2023-03-01T17:04:52;20.10;;;12.90;;
61356;SDS011;47227;46.752;23.576;2023-03-01T17:07:21;20.40;;;12.80;;
61356;SDS011;47227;46.752;23.576;2023-03-01T17:09:52;20.30;;;11.10;;
61356;SDS011;47227;46.752;23.576;2023-03-01T17:12:31;19.30;;;11.50;;
61356;SDS011;47227;46.752;23.576;2023-03-01T17:35:29;25.70;;;13.20;;
61356;SDS011;47227;46.752;23.576;2023-03-01T17:37:58;23.60;;;12.10;;
61356;SDS011;47227;46.752;23.576;2023-03-01T17:49:46;21.20;;;13.00;;
61356;SDS011;47227;46.752;23.576;2023-03-01T17:52:44;25.50;;;13.20;;
61356;SDS011;47227;46.752;23.576;2023-03-01T17:55:57;26.50;;;14.70;;
61356;SDS011;47227;46.752;23.576;2023-03-01T17:58:54;22.50;;;14.10;;
61356;SDS011;47227;46.752;23.576;2023-03-01T18:02:02;28.10;;;13.20;;
61356;SDS011;47227;46.752;23.576;2023-03-01T18:05:19;22.70;;;14.00;;
61356;SDS011;47227;46.752;23.576;2023-03-01T18:07:50;30.40;;;15.00;;
61356;SDS011;47227;46.752;23.576;2023-03-01T18:11:18;25.60;;;16.40;;
61356;SDS011;47227;46.752;23.576;2023-03-01T18:14:51;24.20;;;14.70;;
61356;SDS011;47227;46.752;23.576;2023-03-01T18:17:23;25.50;;;16.10;;
61356;SDS011;47227;46.752;23.576;2023-03-01T18:20:32;28.90;;;14.80;;
61356;SDS011;47227;46.752;23.576;2023-03-01T18:23:14;27.00;;;15.40;;
61356;SDS011;47227;46.752;23.576;2023-03-01T18:25:42;25.60;;;15.50;;